This is the latest recevied weather packets stored in our database for station/object KB0BDN-13. If no packets are shown the sender has not sent any weather packets the latest 10 day(s).
| Time | Temp. | Humidity | Pressure | Rain* | Wind** | Luminosity | Snow |
|---|---|---|---|---|---|---|---|
| 1778113924 | 1.11° C | 64% | 1007 hPa | 0 mm | - | - | - |
| 1778113024 | 1.67° C | 64% | 1007 hPa | 0 mm | - | - | - |
| 1778112124 | 1.67° C | 65% | 1006.8 hPa | 0 mm | - | - | - |
| 1778111224 | 1.67° C | 65% | 1006.8 hPa | 0 mm | - | - | - |
| 1778110324 | 1.67° C | 66% | 1006.8 hPa | 0 mm | - | - | - |
| 1778109424 | 1.67° C | 67% | 1006.8 hPa | 0 mm | - | - | - |
| 1778108524 | 1.67° C | 67% | 1006.9 hPa | 0 mm | - | - | - |
| 1778107624 | 1.67° C | 68% | 1006.9 hPa | 0 mm | - | - | - |
| 1778106724 | 2.22° C | 69% | 1006.8 hPa | 0 mm | - | - | - |
| 1778105823 | 2.22° C | 69% | 1006.7 hPa | 0 mm | - | - | - |
| 1778104924 | 1.67° C | 70% | 1006.7 hPa | 0 mm | - | - | - |
| 1778104023 | 2.22° C | 69% | 1006.6 hPa | 0 mm | - | - | - |
| 1778103123 | 2.22° C | 69% | 1006.7 hPa | 0 mm | - | - | - |
| 1778102224 | 2.22° C | 68% | 1006.6 hPa | 0 mm | - | - | - |
| 1778101323 | 2.22° C | 69% | 1006.6 hPa | 0 mm | - | - | - |
| 1778100424 | 2.22° C | 68% | 1006.7 hPa | 0 mm | - | - | - |
| 1778099523 | 2.22° C | 67% | 1006.7 hPa | 0 mm | - | - | - |
| 1778098623 | 2.22° C | 67% | 1006.6 hPa | 0 mm | - | - | - |
| 1778097723 | 2.78° C | 65% | 1006.5 hPa | 0 mm | - | - | - |
| 1778096823 | 2.78° C | 67% | 1006.5 hPa | 0 mm | - | - | - |
| 1778095923 | 2.22° C | 65% | 1006.6 hPa | 0 mm | - | - | - |
| 1778095023 | 2.22° C | 65% | 1006.5 hPa | 0 mm | - | - | - |
| 1778094123 | 2.22° C | 67% | 1006.5 hPa | 0 mm | - | - | - |
| 1778093223 | 1.67° C | 67% | 1006.7 hPa | 0 mm | - | - | - |
| 1778092323 | 2.22° C | 66% | 1006.6 hPa | 0 mm | - | - | - |
* Rain latest hour (hover to see other rain measurements)
** Current wind speed in m/s (hover to see current wind gust speed)